Time;durP1;ratioP1;P1;durP2;ratioP2;P2;SDS_P1;SDS_P2;PMS_P1;PMS_P2;Temp;Humidity;BMP_temperature;BMP_pressure;BME280_temperature;BME280_humidity;BME280_pressure;Samples;Min_cycle;Max_cycle;Signal;HPM_P1;HPM_P2
2024/03/17 00:00:25;;;;;;;6.18;1.90;;;;;;;;;;6250545;22;20020;-91
2024/03/17 00:02:51;;;;;;;2.65;1.85;;;;;;;;;;6250656;22;20020;-91
2024/03/17 00:05:18;;;;;;;2.88;1.88;;;;;;;;;;6250931;22;20329;-91
2024/03/17 00:07:44;;;;;;;5.43;2.47;;;;;;;;;;6250596;22;20016;-92
2024/03/17 00:10:11;;;;;;;4.72;2.30;;;;;;;;;;6251129;22;20024;-91
2024/03/17 00:12:38;;;;;;;7.50;2.47;;;;;;;;;;6252630;22;20016;-92
2024/03/17 00:15:07;;;;;;;5.78;2.75;;;;;;;;;;6252198;22;20024;-91
2024/03/17 00:17:34;;;;;;;4.57;2.95;;;;;;;;;;6252235;22;20448;-91
2024/03/17 00:20:08;;;;;;;10.55;3.97;;;;;;;;;;6252525;22;20015;-92
2024/03/17 00:22:40;;;;;;;13.90;5.20;;;;;;;;;;6252315;22;20019;-92
2024/03/17 00:25:07;;;;;;;7.75;4.30;;;;;;;;;;6252380;22;20329;-91
2024/03/17 00:27:35;;;;;;;5.97;4.05;;;;;;;;;;6252348;22;20015;-92
2024/03/17 00:30:02;;;;;;;8.65;3.70;;;;;;;;;;6252249;22;20073;-92
2024/03/17 00:32:29;;;;;;;7.75;2.72;;;;;;;;;;6252364;22;20077;-92
2024/03/17 00:34:55;;;;;;;6.25;2.45;;;;;;;;;;6252649;22;20562;-91
2024/03/17 00:37:22;;;;;;;6.03;2.90;;;;;;;;;;6251835;22;20030;-92
2024/03/17 00:39:50;;;;;;;7.32;2.90;;;;;;;;;;6252816;22;20348;-92
2024/03/17 00:42:16;;;;;;;6.72;3.00;;;;;;;;;;6252207;22;20069;-92
2024/03/17 00:44:42;;;;;;;7.28;3.80;;;;;;;;;;6252712;22;20016;-92
2024/03/17 00:47:09;;;;;;;6.50;3.15;;;;;;;;;;6269902;22;20061;-92
2024/03/17 00:49:35;;;;;;;7.68;3.05;;;;;;;;;;6274966;22;20094;-91
2024/03/17 00:52:02;;;;;;;3.50;2.53;;;;;;;;;;6251789;22;20020;-92
2024/03/17 00:54:28;;;;;;;8.63;3.65;;;;;;;;;;6251964;22;20023;-92
2024/03/17 00:56:54;;;;;;;3.95;2.80;;;;;;;;;;6251933;22;20452;-91
2024/03/17 00:59:21;;;;;;;9.20;2.70;;;;;;;;;;6252097;22;20020;-92
2024/03/17 01:01:47;;;;;;;5.70;2.85;;;;;;;;;;6251753;22;20024;-92
2024/03/17 01:04:13;;;;;;;7.55;3.05;;;;;;;;;;6251815;22;20380;-91
2024/03/17 01:06:40;;;;;;;4.25;2.65;;;;;;;;;;6251882;22;20020;-92
2024/03/17 01:09:08;;;;;;;4.97;3.05;;;;;;;;;;6251932;22;20019;-92
2024/03/17 01:11:34;;;;;;;3.22;2.85;;;;;;;;;;6251722;22;20023;-93
2024/03/17 01:14:01;;;;;;;4.78;2.72;;;;;;;;;;6251943;22;20020;-92
2024/03/17 01:16:27;;;;;;;4.32;2.83;;;;;;;;;;6252113;22;20023;-93
2024/03/17 01:18:53;;;;;;;9.68;2.97;;;;;;;;;;6251647;22;20027;-93
2024/03/17 01:21:21;;;;;;;6.28;2.90;;;;;;;;;;6251684;22;20019;-92
2024/03/17 01:23:49;;;;;;;6.63;2.60;;;;;;;;;;6251863;22;20344;-93
2024/03/17 01:26:15;;;;;;;3.67;2.80;;;;;;;;;;6251762;22;20026;-93
2024/03/17 01:28:42;;;;;;;6.80;3.33;;;;;;;;;;6251661;22;20448;-92
2024/03/17 01:31:09;;;;;;;4.05;2.30;;;;;;;;;;6251467;22;20023;-92
2024/03/17 01:33:35;;;;;;;4.20;2.90;;;;;;;;;;6251655;22;20016;-93
2024/03/17 01:36:02;;;;;;;7.22;2.97;;;;;;;;;;6251984;22;20097;-93
2024/03/17 01:38:28;;;;;;;7.93;3.30;;;;;;;;;;6251416;22;20015;-93
2024/03/17 01:40:54;;;;;;;4.65;2.85;;;;;;;;;;6252025;22;20024;-93
2024/03/17 01:43:20;;;;;;;4.00;2.85;;;;;;;;;;6251663;22;20023;-93
2024/03/17 01:45:47;;;;;;;6.38;3.00;;;;;;;;;;6251854;22;20032;-93
2024/03/17 01:48:19;;;;;;;2.65;2.45;;;;;;;;;;6252033;22;20015;-93
2024/03/17 01:50:46;;;;;;;11.38;3.30;;;;;;;;;;6251833;22;20019;-93
2024/03/17 01:53:13;;;;;;;7.18;3.58;;;;;;;;;;6251485;22;20020;-93
2024/03/17 01:55:40;;;;;;;6.10;3.83;;;;;;;;;;6251882;22;20026;-93
2024/03/17 01:58:10;;;;;;;7.07;3.67;;;;;;;;;;6251529;22;20015;-93
2024/03/17 02:00:38;;;;;;;6.82;4.22;;;;;;;;;;6253414;22;20023;-93
2024/03/17 02:03:05;;;;;;;7.90;3.85;;;;;;;;;;6278404;22;20048;-93
2024/03/17 02:05:39;;;;;;;6.97;3.38;;;;;;;;;;6264240;22;20016;-93
2024/03/17 02:08:06;;;;;;;5.90;3.30;;;;;;;;;;6251168;22;20522;-94
2024/03/17 02:10:33;;;;;;;6.80;3.70;;;;;;;;;;6251439;22;20066;-93
2024/03/17 02:13:00;;;;;;;5.95;4.13;;;;;;;;;;6250915;22;20024;-94
2024/03/17 02:15:26;;;;;;;8.77;4.55;;;;;;;;;;6251378;22;20030;-94
2024/03/17 02:17:53;;;;;;;9.15;3.97;;;;;;;;;;6251498;22;20020;-94
2024/03/17 02:20:19;;;;;;;9.45;4.28;;;;;;;;;;6251319;22;20016;-94
2024/03/17 02:22:45;;;;;;;13.00;3.95;;;;;;;;;;6251848;22;20020;-93
2024/03/17 02:25:12;;;;;;;4.75;3.15;;;;;;;;;;6251589;22;20024;-93
2024/03/17 02:27:39;;;;;;;8.60;3.63;;;;;;;;;;6251222;22;20027;-93
2024/03/17 02:30:09;;;;;;;4.18;2.85;;;;;;;;;;6251659;22;20076;-94
2024/03/17 02:32:35;;;;;;;5.63;2.92;;;;;;;;;;6251095;22;20452;-93
2024/03/17 02:35:02;;;;;;;7.18;3.40;;;;;;;;;;6251155;22;20019;-94
2024/03/17 02:37:28;;;;;;;6.32;2.63;;;;;;;;;;6250921;22;20019;-94
2024/03/17 02:39:54;;;;;;;6.65;2.75;;;;;;;;;;6250723;22;20478;-94
2024/03/17 02:42:21;;;;;;;7.05;2.58;;;;;;;;;;6250761;22;20023;-95
2024/03/17 02:44:47;;;;;;;4.70;2.53;;;;;;;;;;6251048;22;20020;-95
2024/03/17 02:47:14;;;;;;;7.45;2.55;;;;;;;;;;6251054;22;20020;-94
2024/03/17 02:49:43;;;;;;;3.58;2.13;;;;;;;;;;6250989;22;20020;-94
2024/03/17 02:52:10;;;;;;;5.32;2.20;;;;;;;;;;6250741;22;20344;-95
2024/03/17 02:54:37;;;;;;;6.85;2.30;;;;;;;;;;6250424;22;20019;-94
2024/03/17 02:57:04;;;;;;;4.28;2.35;;;;;;;;;;6250618;22;20028;-94
2024/03/17 02:59:31;;;;;;;5.95;2.30;;;;;;;;;;6250617;22;20019;-94
2024/03/17 03:01:57;;;;;;;5.80;2.10;;;;;;;;;;6250773;22;20023;-93
2024/03/17 03:04:23;;;;;;;5.72;2.20;;;;;;;;;;6250487;22;20045;-94
2024/03/17 03:06:50;;;;;;;5.60;2.40;;;;;;;;;;6250258;22;20031;-93
2024/03/17 03:09:25;;;;;;;4.63;2.78;;;;;;;;;;6250695;22;20024;-94
2024/03/17 03:11:51;;;;;;;4.95;2.75;;;;;;;;;;6250933;22;20020;-94
2024/03/17 03:14:18;;;;;;;3.75;2.55;;;;;;;;;;6269093;22;20430;-94
2024/03/17 03:16:45;;;;;;;6.15;2.90;;;;;;;;;;6274806;22;20016;-93
2024/03/17 03:19:11;;;;;;;6.32;2.85;;;;;;;;;;6277729;22;20082;-93
2024/03/17 03:21:37;;;;;;;8.52;2.70;;;;;;;;;;6250090;22;20024;-93
2024/03/17 03:24:03;;;;;;;8.57;2.75;;;;;;;;;;6250474;22;20016;-93
2024/03/17 03:26:30;;;;;;;2.72;2.53;;;;;;;;;;6250450;22;20038;-93
2024/03/17 03:28:56;;;;;;;3.13;2.25;;;;;;;;;;6250851;22;20020;-94
2024/03/17 03:31:22;;;;;;;3.88;2.10;;;;;;;;;;6250493;22;20024;-93
2024/03/17 03:33:49;;;;;;;5.90;3.00;;;;;;;;;;6250666;22;20023;-92
2024/03/17 03:36:20;;;;;;;5.25;2.13;;;;;;;;;;6250566;22;20031;-92
2024/03/17 03:38:47;;;;;;;6.70;3.25;;;;;;;;;;6250747;22;20471;-92
2024/03/17 03:41:16;;;;;;;5.93;2.13;;;;;;;;;;6250523;22;20020;-92
2024/03/17 03:43:43;;;;;;;5.85;2.50;;;;;;;;;;6250441;22;20015;-92
2024/03/17 03:46:09;;;;;;;4.60;2.67;;;;;;;;;;6250819;22;20019;-92
2024/03/17 03:48:35;;;;;;;8.77;1.92;;;;;;;;;;6250538;22;20019;-92
2024/03/17 03:51:09;;;;;;;2.72;2.50;;;;;;;;;;6250841;22;20030;-92
2024/03/17 03:53:36;;;;;;;4.97;2.20;;;;;;;;;;6250818;22;20069;-92
2024/03/17 03:56:10;;;;;;;3.60;1.90;;;;;;;;;;6250279;22;20030;-92
2024/03/17 03:58:37;;;;;;;3.42;2.08;;;;;;;;;;6250674;22;20019;-92
2024/03/17 04:01:07;;;;;;;2.38;1.95;;;;;;;;;;6250223;22;20031;-92
2024/03/17 04:03:34;;;;;;;7.20;2.38;;;;;;;;;;6250941;22;20019;-93
2024/03/17 04:06:09;;;;;;;4.47;2.47;;;;;;;;;;6250826;22;20019;-92
2024/03/17 04:08:36;;;;;;;6.10;2.33;;;;;;;;;;6250658;22;20016;-92
2024/03/17 04:11:02;;;;;;;3.38;2.00;;;;;;;;;;6250245;22;20019;-92
2024/03/17 04:13:29;;;;;;;2.65;2.33;;;;;;;;;;6251004;22;20023;-92
2024/03/17 04:15:56;;;;;;;4.65;2.30;;;;;;;;;;6250444;22;20020;-92
2024/03/17 04:18:30;;;;;;;6.65;2.40;;;;;;;;;;6250692;22;20030;-92
2024/03/17 04:20:56;;;;;;;;;;;;;;;;;;6251027;22;20130;-91
2024/03/17 04:23:23;;;;;;;2.47;2.10;;;;;;;;;;6276109;22;20327;-92
2024/03/17 04:25:50;;;;;;;5.07;2.33;;;;;;;;;;6250679;22;20034;-92
2024/03/17 04:28:17;;;;;;;3.80;2.05;;;;;;;;;;6250388;22;20023;-92
2024/03/17 04:30:44;;;;;;;6.03;2.25;;;;;;;;;;6255345;22;20333;-92
2024/03/17 04:33:11;;;;;;;2.95;1.90;;;;;;;;;;6277242;22;20056;-91
2024/03/17 04:35:45;;;;;;;6.10;2.30;;;;;;;;;;6258232;22;20015;-91
2024/03/17 04:38:14;;;;;;;4.13;2.30;;;;;;;;;;6250265;22;20031;-92
2024/03/17 04:40:41;;;;;;;3.45;2.10;;;;;;;;;;6250122;22;20024;-92
2024/03/17 04:43:07;;;;;;;7.90;2.17;;;;;;;;;;6250003;22;20340;-91
2024/03/17 04:45:34;;;;;;;6.47;1.92;;;;;;;;;;6250234;22;20023;-91
2024/03/17 04:48:00;;;;;;;8.40;2.50;;;;;;;;;;6250208;22;20019;-91
2024/03/17 04:50:31;;;;;;;5.25;2.08;;;;;;;;;;6249999;22;20020;-91
2024/03/17 04:52:57;;;;;;;2.25;2.15;;;;;;;;;;6250487;22;20023;-91
2024/03/17 04:55:24;;;;;;;6.47;2.30;;;;;;;;;;6275530;22;20459;-91
2024/03/17 04:57:50;;;;;;;5.00;2.55;;;;;;;;;;6251941;22;20042;-91
2024/03/17 05:00:17;;;;;;;3.55;2.38;;;;;;;;;;6251732;22;20467;-91
2024/03/17 05:02:44;;;;;;;4.82;2.33;;;;;;;;;;6277609;22;20019;-91
2024/03/17 05:05:11;;;;;;;4.40;2.42;;;;;;;;;;6251940;22;20082;-91
2024/03/17 05:07:37;;;;;;;4.38;2.53;;;;;;;;;;6253050;22;20023;-91
2024/03/17 05:10:05;;;;;;;6.78;2.25;;;;;;;;;;6252694;22;20015;-91
2024/03/17 05:12:32;;;;;;;4.97;2.30;;;;;;;;;;6252124;22;20479;-91
2024/03/17 05:14:58;;;;;;;3.90;2.50;;;;;;;;;;6277405;22;20020;-90
2024/03/17 05:17:24;;;;;;;7.15;3.00;;;;;;;;;;6277663;22;20031;-90
2024/03/17 05:19:50;;;;;;;6.78;2.70;;;;;;;;;;6277762;22;20020;-90
2024/03/17 05:22:17;;;;;;;9.43;3.03;;;;;;;;;;6251668;22;20023;-90
2024/03/17 05:24:43;;;;;;;4.70;2.72;;;;;;;;;;6251623;22;20026;-89
2024/03/17 05:27:09;;;;;;;8.20;3.20;;;;;;;;;;6252028;22;20344;-90
2024/03/17 05:29:37;;;;;;;9.00;3.03;;;;;;;;;;6251395;22;20452;-90
2024/03/17 05:32:04;;;;;;;5.63;3.00;;;;;;;;;;6251668;22;20016;-90
2024/03/17 05:34:31;;;;;;;5.25;3.00;;;;;;;;;;6276920;22;20023;-90
2024/03/17 05:36:57;;;;;;;6.43;3.42;;;;;;;;;;6251493;22;20020;-90
2024/03/17 05:39:23;;;;;;;6.15;2.90;;;;;;;;;;6276894;22;20046;-90
2024/03/17 05:41:49;;;;;;;6.97;3.28;;;;;;;;;;6251773;22;20031;-90
2024/03/17 05:44:16;;;;;;;7.72;3.40;;;;;;;;;;6252462;22;20015;-90
2024/03/17 05:46:43;;;;;;;3.60;3.13;;;;;;;;;;6267590;22;20026;-90
2024/03/17 05:49:10;;;;;;;6.90;2.85;;;;;;;;;;6265163;22;20352;-89
2024/03/17 05:51:36;;;;;;;5.60;3.13;;;;;;;;;;6276813;22;20032;-90
2024/03/17 05:54:03;;;;;;;7.97;3.50;;;;;;;;;;6251180;22;20081;-89
2024/03/17 05:56:29;;;;;;;6.68;4.45;;;;;;;;;;6251126;22;20023;-89
2024/03/17 05:58:55;;;;;;;11.38;3.97;;;;;;;;;;6251601;22;20019;-89
2024/03/17 06:01:22;;;;;;;7.40;4.13;;;;;;;;;;6251286;22;20028;-90
2024/03/17 06:03:48;;;;;;;6.75;3.92;;;;;;;;;;6251183;22;20022;-90
2024/03/17 06:06:14;;;;;;;5.07;4.10;;;;;;;;;;6276492;22;20020;-90
2024/03/17 06:08:41;;;;;;;9.18;4.90;;;;;;;;;;6251013;22;20023;-90
2024/03/17 06:11:08;;;;;;;5.57;4.30;;;;;;;;;;6251236;22;20019;-89
2024/03/17 06:13:34;;;;;;;12.02;6.47;;;;;;;;;;6251103;22;20070;-89
2024/03/17 06:16:02;;;;;;;16.23;7.55;;;;;;;;;;6251318;22;20019;-90
2024/03/17 06:18:29;;;;;;;7.60;4.88;;;;;;;;;;6276424;22;20456;-90
2024/03/17 06:20:58;;;;;;;6.65;4.75;;;;;;;;;;6276850;22;20423;-90
2024/03/17 06:23:26;;;;;;;7.80;4.20;;;;;;;;;;6251094;22;20023;-90
2024/03/17 06:25:55;;;;;;;7.05;4.25;;;;;;;;;;6251165;22;20020;-90
2024/03/17 06:28:21;;;;;;;12.32;4.72;;;;;;;;;;6276712;22;20027;-90
2024/03/17 06:31:03;;;;;;;9.40;4.47;;;;;;;;;;6251390;22;20023;-90
2024/03/17 06:33:31;;;;;;;8.70;4.20;;;;;;;;;;6251183;22;20344;-90
2024/03/17 06:35:58;;;;;;;8.20;4.07;;;;;;;;;;6251216;22;20081;-90
2024/03/17 06:38:24;;;;;;;13.32;4.90;;;;;;;;;;6250689;22;20026;-90
2024/03/17 06:40:51;;;;;;;11.88;5.07;;;;;;;;;;6250905;22;20023;-90
2024/03/17 06:43:17;;;;;;;7.25;4.95;;;;;;;;;;6276178;22;20016;-90
2024/03/17 06:45:44;;;;;;;12.00;5.10;;;;;;;;;;6276282;22;20066;-91
2024/03/17 06:48:10;;;;;;;8.07;4.72;;;;;;;;;;6276241;22;20452;-90
2024/03/17 06:50:40;;;;;;;8.25;4.38;;;;;;;;;;6250779;22;20027;-91
2024/03/17 06:53:08;;;;;;;12.90;5.00;;;;;;;;;;6251285;22;20030;-91
2024/03/17 06:55:34;;;;;;;13.75;6.18;;;;;;;;;;6251169;22;20015;-90
2024/03/17 06:58:01;;;;;;;10.60;6.07;;;;;;;;;;6278124;22;20019;-91
2024/03/17 07:00:27;;;;;;;16.77;7.90;;;;;;;;;;6283667;22;20029;-91
2024/03/17 07:02:54;;;;;;;13.45;7.05;;;;;;;;;;6278875;22;20077;-91
2024/03/17 07:05:20;;;;;;;15.25;7.85;;;;;;;;;;6258877;22;20452;-92
2024/03/17 07:07:46;;;;;;;66.88;19.33;;;;;;;;;;6251153;22;20030;-92
2024/03/17 07:10:13;;;;;;;20.98;10.20;;;;;;;;;;6251244;22;20015;-92
2024/03/17 07:12:40;;;;;;;21.65;12.80;;;;;;;;;;6250709;22;20020;-91
2024/03/17 07:15:07;;;;;;;14.50;8.80;;;;;;;;;;6225451;22;20019;-91
2024/03/17 07:17:33;;;;;;;18.75;11.13;;;;;;;;;;6250639;22;20020;-91
2024/03/17 07:20:00;;;;;;;12.07;8.55;;;;;;;;;;6250981;22;20019;-91
2024/03/17 07:22:26;;;;;;;8.65;6.43;;;;;;;;;;6276309;22;20335;-91
2024/03/17 07:25:00;;;;;;;9.80;5.00;;;;;;;;;;6275864;22;20471;-91
2024/03/17 07:27:27;;;;;;;5.95;4.28;;;;;;;;;;6274082;22;20062;-91
2024/03/17 07:29:53;;;;;;;4.68;3.17;;;;;;;;;;6275673;22;20015;-91
2024/03/17 07:32:19;;;;;;;3.00;1.80;;;;;;;;;;6249887;22;20020;-91
2024/03/17 07:34:46;;;;;;;5.65;2.78;;;;;;;;;;6250926;22;20020;-91
2024/03/17 07:37:12;;;;;;;3.25;1.63;;;;;;;;;;6276426;22;20026;-91
2024/03/17 07:39:38;;;;;;;3.60;1.40;;;;;;;;;;6250525;22;20023;-91
2024/03/17 07:42:06;;;;;;;1.52;1.42;;;;;;;;;;6250310;22;20026;-90
2024/03/17 07:44:35;;;;;;;3.67;1.52;;;;;;;;;;6250571;22;20436;-90
2024/03/17 07:47:03;;;;;;;2.03;1.60;;;;;;;;;;6276055;22;20020;-90
2024/03/17 07:49:30;;;;;;;5.35;1.70;;;;;;;;;;6276529;22;20016;-91
2024/03/17 07:51:57;;;;;;;4.68;1.80;;;;;;;;;;6250431;22;20028;-91
2024/03/17 07:54:24;;;;;;;4.18;1.83;;;;;;;;;;6250604;22;20069;-91
2024/03/17 07:56:51;;;;;;;2.40;1.48;;;;;;;;;;6275728;22;20234;-90
2024/03/17 07:59:17;;;;;;;2.67;1.50;;;;;;;;;;6250858;22;20023;-91
2024/03/17 08:01:44;;;;;;;2.25;1.23;;;;;;;;;;6250655;22;20027;-91
2024/03/17 08:04:11;;;;;;;2.67;1.40;;;;;;;;;;6276560;22;20016;-90
2024/03/17 08:06:39;;;;;;;4.55;1.63;;;;;;;;;;6250531;22;20019;-90
2024/03/17 08:09:05;;;;;;;2.05;1.13;;;;;;;;;;6276009;22;20352;-90
2024/03/17 08:11:31;;;;;;;2.55;1.08;;;;;;;;;;6250602;22;20061;-90
2024/03/17 08:13:57;;;;;;;1.10;0.80;;;;;;;;;;6252442;22;20345;-91
2024/03/17 08:16:24;;;;;;;6.20;2.03;;;;;;;;;;6293201;22;20012;-91
2024/03/17 08:18:50;;;;;;;3.53;1.58;;;;;;;;;;6269257;22;20016;-91
2024/03/17 08:21:16;;;;;;;2.90;0.88;;;;;;;;;;6251356;22;20047;-90
2024/03/17 08:23:42;;;;;;;3.08;0.95;;;;;;;;;;6251496;22;20019;-90
2024/03/17 08:26:09;;;;;;;2.30;1.20;;;;;;;;;;6250869;22;20027;-90
2024/03/17 08:28:36;;;;;;;2.15;1.15;;;;;;;;;;6276326;22;20020;-91
2024/03/17 08:31:03;;;;;;;1.15;1.05;;;;;;;;;;6251301;22;20048;-90
2024/03/17 08:33:30;;;;;;;2.10;1.15;;;;;;;;;;6252793;22;20016;-90
2024/03/17 08:35:56;;;;;;;3.17;1.20;;;;;;;;;;6252450;22;20031;-90
2024/03/17 08:38:23;;;;;;;1.40;1.08;;;;;;;;;;6251846;22;20023;-90
2024/03/17 08:40:50;;;;;;;1.52;1.20;;;;;;;;;;6251918;22;20023;-90
2024/03/17 08:43:16;;;;;;;1.33;1.20;;;;;;;;;;6252189;22;20457;-90
2024/03/17 08:45:43;;;;;;;3.50;1.27;;;;;;;;;;6277621;22;20016;-89
2024/03/17 08:48:12;;;;;;;1.75;1.20;;;;;;;;;;6252511;22;20330;-90
2024/03/17 08:50:40;;;;;;;2.15;1.48;;;;;;;;;;6251984;22;20448;-90
2024/03/17 08:53:06;;;;;;;2.10;1.88;;;;;;;;;;6277924;22;20024;-90
2024/03/17 08:55:33;;;;;;;2.28;1.63;;;;;;;;;;6278124;22;20518;-90
2024/03/17 08:57:59;;;;;;;1.63;1.30;;;;;;;;;;6277605;22;20069;-89
2024/03/17 09:00:25;;;;;;;2.83;1.30;;;;;;;;;;6252183;22;20026;-90
2024/03/17 09:02:51;;;;;;;1.70;1.20;;;;;;;;;;6251982;22;20023;-90
2024/03/17 09:05:18;;;;;;;2.28;1.58;;;;;;;;;;6251671;22;20574;-90
2024/03/17 09:07:44;;;;;;;7.38;5.05;;;;;;;;;;6251928;22;20080;-87
2024/03/17 09:10:13;;;;;;;2.33;1.73;;;;;;;;;;6277603;22;20026;-90
2024/03/17 09:12:40;;;;;;;1.70;1.27;;;;;;;;;;6252161;22;20474;-90
2024/03/17 09:15:07;;;;;;;2.83;1.60;;;;;;;;;;6252243;22;20020;-89
2024/03/17 09:17:34;;;;;;;2.10;1.55;;;;;;;;;;6252039;22;20031;-89
2024/03/17 09:20:00;;;;;;;2.53;1.48;;;;;;;;;;6276999;22;20061;-89
2024/03/17 09:22:27;;;;;;;3.40;1.95;;;;;;;;;;6251678;22;20460;-86
2024/03/17 09:24:53;;;;;;;3.47;1.90;;;;;;;;;;6277338;22;20020;-88
2024/03/17 09:27:22;;;;;;;2.40;1.83;;;;;;;;;;6252153;22;20028;-87
2024/03/17 09:29:48;;;;;;;4.07;1.85;;;;;;;;;;6261651;22;20011;-87
2024/03/17 09:32:17;;;;;;;6.55;2.03;;;;;;;;;;6263143;22;20458;-86
2024/03/17 09:34:50;;;;;;;2.38;2.17;;;;;;;;;;6251377;22;20030;-87
2024/03/17 09:37:16;;;;;;;2.55;1.75;;;;;;;;;;6251578;22;20271;-89
2024/03/17 09:39:46;;;;;;;2.35;1.85;;;;;;;;;;6251514;22;20054;-87
2024/03/17 09:42:20;;;;;;;4.72;2.15;;;;;;;;;;6276822;22;20441;-88
2024/03/17 09:44:47;;;;;;;3.35;2.00;;;;;;;;;;6251098;22;20098;-86
2024/03/17 09:47:19;;;;;;;2.88;1.95;;;;;;;;;;6251174;22;20024;-88
2024/03/17 09:49:46;;;;;;;2.92;1.90;;;;;;;;;;6251535;22;20020;-88
2024/03/17 09:52:20;;;;;;;2.85;2.10;;;;;;;;;;6251446;22;20031;-88
2024/03/17 09:54:47;;;;;;;2.78;1.67;;;;;;;;;;6276904;22;20019;-87
2024/03/17 09:57:17;;;;;;;1.95;1.73;;;;;;;;;;6251210;22;20019;-88
2024/03/17 09:59:43;;;;;;;2.28;2.05;;;;;;;;;;6251092;22;20460;-88
2024/03/17 10:02:18;;;;;;;2.15;1.95;;;;;;;;;;6251036;22;20456;-87
2024/03/17 10:04:45;;;;;;;2.40;1.70;;;;;;;;;;6251004;22;20016;-91
2024/03/17 10:07:11;;;;;;;2.05;1.80;;;;;;;;;;6276561;22;20472;-90
2024/03/17 10:09:39;;;;;;;2.65;2.30;;;;;;;;;;6276763;22;20336;-90
2024/03/17 10:12:06;;;;;;;2.42;1.90;;;;;;;;;;6276323;22;20444;-90
2024/03/17 10:14:33;;;;;;;3.88;2.10;;;;;;;;;;6251203;22;20016;-89
2024/03/17 10:16:59;;;;;;;2.47;2.15;;;;;;;;;;6251081;22;20024;-89
2024/03/17 10:19:27;;;;;;;3.63;2.35;;;;;;;;;;6251247;22;20020;-87
2024/03/17 10:22:00;;;;;;;1.90;1.80;;;;;;;;;;6251283;22;20351;-86
2024/03/17 10:24:28;;;;;;;3.72;1.98;;;;;;;;;;6251067;22;20019;-87
2024/03/17 10:26:55;;;;;;;3.03;1.90;;;;;;;;;;6251123;22;20020;-89
2024/03/17 10:29:24;;;;;;;3.25;2.05;;;;;;;;;;6251364;22;20387;-89
2024/03/17 10:31:52;;;;;;;3.15;2.35;;;;;;;;;;6250974;22;20020;-89
2024/03/17 10:34:18;;;;;;;3.53;2.15;;;;;;;;;;6250969;22;20475;-89
2024/03/17 10:36:47;;;;;;;3.38;2.60;;;;;;;;;;6249762;22;20448;-89
2024/03/17 10:39:28;;;;;;;2.78;1.95;;;;;;;;;;6250769;22;20016;-89
2024/03/17 10:42:02;;;;;;;2.38;2.15;;;;;;;;;;6277090;22;20019;-90
2024/03/17 10:44:28;;;;;;;3.92;2.80;;;;;;;;;;6289466;22;20020;-88
2024/03/17 10:46:56;;;;;;;2.40;1.80;;;;;;;;;;6258609;22;20020;-90
2024/03/17 10:49:33;;;;;;;4.07;2.17;;;;;;;;;;6250998;22;20071;-90
2024/03/17 10:52:00;;;;;;;2.95;2.03;;;;;;;;;;6250918;22;20042;-89
2024/03/17 10:54:28;;;;;;;4.68;2.17;;;;;;;;;;6276151;22;20023;-90
2024/03/17 10:57:08;;;;;;;4.82;1.90;;;;;;;;;;6251251;22;20030;-87
2024/03/17 10:59:41;;;;;;;1.77;1.50;;;;;;;;;;6251155;22;20019;-88
2024/03/17 11:02:22;;;;;;;1.85;1.50;;;;;;;;;;6250676;22;20028;-87
2024/03/17 11:04:50;;;;;;;2.47;1.40;;;;;;;;;;6276270;22;20023;-87
2024/03/17 11:07:17;;;;;;;3.70;1.50;;;;;;;;;;6250950;22;20479;-89
2024/03/17 11:09:44;;;;;;;2.85;1.50;;;;;;;;;;6250776;22;20062;-88
2024/03/17 11:12:29;;;;;;;1.63;1.42;;;;;;;;;;6276303;22;20015;-87
2024/03/17 11:15:21;;;;;;;2.58;1.60;;;;;;;;;;6250676;22;20015;-87
2024/03/17 11:17:50;;;;;;;1.83;1.58;;;;;;;;;;6276009;22;20046;-89
2024/03/17 11:20:24;;;;;;;2.72;1.70;;;;;;;;;;6250627;22;20016;-88
2024/03/17 11:22:51;;;;;;;1.70;1.48;;;;;;;;;;6250845;22;20452;-88
2024/03/17 11:25:26;;;;;;;3.33;1.50;;;;;;;;;;6250661;22;20020;-88
2024/03/17 11:28:03;;;;;;;2.17;1.55;;;;;;;;;;6276072;22;20028;-88
2024/03/17 11:30:51;;;;;;;8.32;1.58;;;;;;;;;;6250547;22;20475;-87
2024/03/17 11:33:30;;;;;;;3.30;1.20;;;;;;;;;;6250180;22;20028;-87
2024/03/17 11:36:15;;;;;;;2.45;1.27;;;;;;;;;;6275851;22;20020;-87
2024/03/17 11:38:54;;;;;;;1.98;1.20;;;;;;;;;;6275605;22;20023;-87
2024/03/17 11:41:35;;;;;;;2.03;1.27;;;;;;;;;;6250176;22;20073;-88
2024/03/17 11:44:28;;;;;;;2.63;1.58;;;;;;;;;;6250109;22;20020;-90
2024/03/17 11:46:59;;;;;;;2.22;1.63;;;;;;;;;;6250409;22;20027;-88
2024/03/17 11:49:26;;;;;;;4.80;1.42;;;;;;;;;;6250481;22;20016;-90
2024/03/17 11:51:53;;;;;;;2.50;1.38;;;;;;;;;;6276113;22;20392;-89
2024/03/17 11:54:46;;;;;;;1.88;1.10;;;;;;;;;;6250323;22;20020;-88
2024/03/17 11:57:24;;;;;;;3.08;1.35;;;;;;;;;;6272311;22;20020;-89
2024/03/17 11:59:52;;;;;;;1.55;1.00;;;;;;;;;;6266024;22;20020;-88
2024/03/17 12:02:18;;;;;;;2.15;1.45;;;;;;;;;;6252763;22;20020;-90
2024/03/17 12:04:44;;;;;;;2.60;1.50;;;;;;;;;;6251962;22;20026;-89
2024/03/17 12:07:17;;;;;;;1.40;1.23;;;;;;;;;;6279268;22;20457;-90
2024/03/17 12:09:45;;;;;;;2.70;1.17;;;;;;;;;;6253327;22;20020;-88
2024/03/17 12:12:22;;;;;;;3.40;1.35;;;;;;;;;;6278140;22;20020;-87
2024/03/17 12:14:49;;;;;;;6.65;1.63;;;;;;;;;;6253137;22;20023;-87
2024/03/17 12:17:21;;;;;;;1.63;1.20;;;;;;;;;;6252363;22;20464;-87
2024/03/17 12:19:47;;;;;;;1.70;1.55;;;;;;;;;;6252724;22;20355;-87
2024/03/17 12:22:21;;;;;;;2.42;2.17;;;;;;;;;;6252166;22;20050;-88
2024/03/17 12:24:52;;;;;;;3.22;1.95;;;;;;;;;;6277864;22;20015;-89
2024/03/17 12:27:19;;;;;;;1.73;1.40;;;;;;;;;;6252275;22;20053;-89
2024/03/17 12:29:46;;;;;;;2.25;1.23;;;;;;;;;;6252230;22;20026;-88
2024/03/17 12:32:21;;;;;;;2.42;1.30;;;;;;;;;;6251880;22;20023;-88
2024/03/17 12:34:49;;;;;;;4.22;1.60;;;;;;;;;;6252684;22;20019;-88
2024/03/17 12:37:22;;;;;;;2.85;1.38;;;;;;;;;;6252137;22;20031;-88
2024/03/17 12:39:48;;;;;;;1.90;1.33;;;;;;;;;;6251907;22;20020;-88
2024/03/17 12:42:20;;;;;;;1.60;1.40;;;;;;;;;;6251851;22;20024;-88
2024/03/17 12:44:53;;;;;;;1.50;1.40;;;;;;;;;;6252014;22;20019;-88
2024/03/17 12:47:20;;;;;;;3.10;1.42;;;;;;;;;;6281809;22;20023;-87
2024/03/17 12:49:47;;;;;;;3.08;1.52;;;;;;;;;;6259591;22;20016;-88
2024/03/17 12:52:21;;;;;;;1.58;1.48;;;;;;;;;;6258037;22;20125;-88
2024/03/17 13:00:35;;;;;;;3.90;1.90;;;;;;;;;;6277393;22;20027;-88
2024/03/17 13:03:05;;;;;;;3.83;1.63;;;;;;;;;;6251810;22;20027;-87
2024/03/17 13:05:36;;;;;;;1.50;1.30;;;;;;;;;;6251535;22;20016;-88
2024/03/17 13:08:03;;;;;;;1.60;1.50;;;;;;;;;;6251861;22;20077;-88
2024/03/17 13:10:33;;;;;;;1.92;1.55;;;;;;;;;;6252484;22;20019;-88
2024/03/17 13:13:03;;;;;;;2.45;1.60;;;;;;;;;;6258203;22;20020;-88
2024/03/17 13:15:35;;;;;;;5.20;2.97;;;;;;;;;;6258513;22;20325;-87
2024/03/17 13:18:03;;;;;;;4.10;1.90;;;;;;;;;;6276772;22;20022;-88
2024/03/17 13:20:30;;;;;;;2.47;1.52;;;;;;;;;;6251521;22;20027;-87
2024/03/17 13:23:00;;;;;;;2.75;1.70;;;;;;;;;;6251417;22;20023;-88
2024/03/17 13:25:29;;;;;;;3.38;1.60;;;;;;;;;;6251675;22;20020;-89
2024/03/17 13:27:56;;;;;;;2.08;1.63;;;;;;;;;;6251826;22;20024;-87
2024/03/17 13:30:23;;;;;;;2.20;1.73;;;;;;;;;;6251633;22;20027;-88
2024/03/17 13:32:55;;;;;;;3.17;1.40;;;;;;;;;;6251728;22;20019;-87
2024/03/17 13:35:22;;;;;;;2.47;1.50;;;;;;;;;;6277236;22;20023;-88
2024/03/17 13:37:50;;;;;;;2.67;1.95;;;;;;;;;;6251189;22;20022;-88
2024/03/17 13:40:18;;;;;;;3.08;1.80;;;;;;;;;;6277156;22;20046;-88
2024/03/17 13:42:45;;;;;;;4.43;1.80;;;;;;;;;;6251357;22;20352;-88
2024/03/17 13:45:12;;;;;;;2.30;1.55;;;;;;;;;;6250916;22;20019;-87
2024/03/17 13:47:38;;;;;;;1.85;1.40;;;;;;;;;;6251406;22;20023;-87
2024/03/17 13:50:10;;;;;;;1.98;1.25;;;;;;;;;;6251224;22;20020;-89
2024/03/17 13:52:37;;;;;;;2.67;1.48;;;;;;;;;;6276878;22;20030;-88
2024/03/17 13:55:06;;;;;;;2.10;1.60;;;;;;;;;;6251271;22;20089;-88
2024/03/17 13:57:35;;;;;;;2.33;1.70;;;;;;;;;;6251839;22;20020;-88
2024/03/17 14:00:02;;;;;;;4.18;1.73;;;;;;;;;;6251140;22;20027;-87
2024/03/17 14:02:28;;;;;;;3.67;2.33;;;;;;;;;;6251266;22;20031;-88
2024/03/17 14:04:55;;;;;;;4.72;1.70;;;;;;;;;;6276656;22;20027;-88
2024/03/17 14:07:21;;;;;;;2.80;1.65;;;;;;;;;;6251083;22;20024;-88
2024/03/17 14:09:47;;;;;;;3.92;1.45;;;;;;;;;;6276728;22;20019;-88
2024/03/17 14:12:13;;;;;;;2.15;1.63;;;;;;;;;;6276409;22;20023;-87
2024/03/17 14:14:40;;;;;;;2.13;1.88;;;;;;;;;;6251570;22;20487;-89
2024/03/17 14:17:06;;;;;;;2.58;1.67;;;;;;;;;;6276532;22;20020;-88
2024/03/17 14:19:32;;;;;;;2.65;1.50;;;;;;;;;;6251406;22;20456;-89
2024/03/17 14:21:59;;;;;;;2.70;1.35;;;;;;;;;;6250960;22;20348;-89
2024/03/17 14:24:26;;;;;;;1.40;1.30;;;;;;;;;;6276712;22;20336;-89
2024/03/17 14:26:52;;;;;;;2.67;1.60;;;;;;;;;;6253827;22;20030;-89
2024/03/17 14:29:18;;;;;;;2.83;1.60;;;;;;;;;;6291349;22;20019;-88
2024/03/17 14:31:45;;;;;;;2.50;1.60;;;;;;;;;;6277058;22;20031;-88
2024/03/17 14:34:11;;;;;;;1.45;1.33;;;;;;;;;;6250937;22;20023;-88
2024/03/17 14:36:38;;;;;;;1.50;1.40;;;;;;;;;;6250927;22;20019;-88
2024/03/17 14:39:04;;;;;;;1.70;1.35;;;;;;;;;;6276150;22;20027;-88
2024/03/17 14:41:31;;;;;;;1.30;1.20;;;;;;;;;;6250823;22;20019;-87
2024/03/17 14:43:57;;;;;;;3.42;1.40;;;;;;;;;;6276189;22;20035;-90
2024/03/17 14:46:24;;;;;;;3.20;2.20;;;;;;;;;;6251238;22;20015;-88
2024/03/17 14:48:50;;;;;;;1.77;1.50;;;;;;;;;;6250822;22;20348;-89
2024/03/17 14:51:17;;;;;;;1.60;1.40;;;;;;;;;;6250771;22;20028;-89
2024/03/17 14:53:48;;;;;;;2.40;1.58;;;;;;;;;;6250608;22;20022;-88